»·PEaware :: DAL2311 KLAX-KSLC

DAL2311 :: KLAX-KSLC

FLIGHT INFORMATION

Flight Status: Arrived
Operator:
Delta Air Lines
More flights by this operator :: More flights under this callsign
Pilot: Craig H. (6968)
Aircraft: BOEING 737-900
(B739)
More flights by this aircraft type
Origin: KLAX Los Angeles Intl
United States
Destination: KSLC Salt Lake City Intl
United States
More flights between these airports :: More routes between these airports
Route: ORCKA5 LAS Q70 BLIPP Q842 WINEN MLF QWENN5
File this flight plan on PilotEdge
Remarks:
Altitude:
(Current/Filed)
5,000ft
Speed:
(Current/Filed)
442kts
Departed: 01-Dec-23 01:34 PM
Arrived: 01-Dec-23 03:03 PM
Distance/Time
Traveled:
512nm/1:28
Distance/Time
To Go:
Arrived

Flight Plot

Page will automatically refresh every two minutes.

Flight plan parsing failed; only flown route is shown


Map Options




Map Legend


Flown Route
Filed Route
Departure Airport
Arrival Airport
Navaid (VOR, NDB)
Fix

Horizontal Profiles

Position Reports

Time Latitude Longitude Heading Altitude Ground
Speed
01-Dec-23 13:00 33.940422 -118.406108 261 124ft 0kts
01-Dec-23 13:01 33.940422 -118.406108 261 124ft 0kts
01-Dec-23 13:02 33.940422 -118.406108 261 124ft 0kts
01-Dec-23 13:03 33.940422 -118.406108 261 124ft 0kts
01-Dec-23 13:04 33.940422 -118.406108 261 124ft 0kts
01-Dec-23 13:05 33.940422 -118.406108 261 124ft 0kts
01-Dec-23 13:06 33.940422 -118.406108 261 124ft 0kts
01-Dec-23 13:07 33.940422 -118.406108 261 124ft 0kts
01-Dec-23 13:08 33.940422 -118.406108 261 124ft 0kts
01-Dec-23 13:09 33.940422 -118.406108 261 143ft 0kts
01-Dec-23 13:10 33.940422 -118.406108 261 143ft 0kts
01-Dec-23 13:11 33.940422 -118.406108 261 143ft 0kts
01-Dec-23 13:12 33.940422 -118.406108 261 143ft 0kts
01-Dec-23 13:13 33.940422 -118.406108 261 143ft 0kts
01-Dec-23 13:14 33.940422 -118.406108 261 143ft 0kts
01-Dec-23 13:15 33.940422 -118.406108 261 143ft 0kts
01-Dec-23 13:16 33.940422 -118.406108 261 143ft 0kts
01-Dec-23 13:17 33.940457 -118.405954 253 119ft 1kts
01-Dec-23 13:18 33.940429 -118.405657 231 119ft 0kts
01-Dec-23 13:19 33.940420 -118.405669 233 121ft 0kts
01-Dec-23 13:20 33.940420 -118.405669 233 121ft 0kts
01-Dec-23 13:21 33.940420 -118.405669 233 121ft 0kts
01-Dec-23 13:22 33.940420 -118.405669 233 121ft 0kts
01-Dec-23 13:23 33.940365 -118.405700 183 121ft 1kts
01-Dec-23 13:24 33.940301 -118.405685 167 124ft 0kts
01-Dec-23 13:25 33.940301 -118.405685 167 124ft 0kts
01-Dec-23 13:26 33.940301 -118.405685 167 124ft 0kts
01-Dec-23 13:27 33.940267 -118.405675 165 124ft 1kts
01-Dec-23 13:28 33.938363 -118.404129 84 124ft 12kts
01-Dec-23 13:29 33.939104 -118.396863 83 123ft 26kts
01-Dec-23 13:30 33.939934 -118.388700 82 124ft 22kts
01-Dec-23 13:31 33.940654 -118.381806 83 124ft 18kts
01-Dec-23 13:32 33.940769 -118.380449 94 124ft 0kts
01-Dec-23 13:33 33.939475 -118.383888 262 124ft 71kts
01-Dec-23 13:34 33.934222 -118.433073 264 1508ft 173kts
01-Dec-23 13:35 33.922469 -118.494923 254 3177ft 229kts
01-Dec-23 13:36 33.897012 -118.574644 234 4949ft 275kts
01-Dec-23 13:37 33.827494 -118.565904 117 7306ft 292kts
01-Dec-23 13:38 33.851264 -118.490579 25 9967ft 269kts
01-Dec-23 13:39 33.924445 -118.439247 36 11159ft 339kts
01-Dec-23 13:40 33.983097 -118.344641 50 13553ft 365kts
01-Dec-23 13:41 34.041563 -118.241252 50 15866ft 378kts
01-Dec-23 13:42 34.102016 -118.134455 50 18098ft 391kts
01-Dec-23 13:43 34.163995 -118.024596 49 20154ft 399kts
01-Dec-23 13:44 34.227015 -117.912559 49 22015ft 411kts
01-Dec-23 13:45 34.291670 -117.797163 48 24010ft 418kts
01-Dec-23 13:46 34.357480 -117.679511 46 25485ft 425kts
01-Dec-23 13:47 34.427183 -117.563184 45 26953ft 432kts
01-Dec-23 13:48 34.498455 -117.443996 45 28342ft 440kts
01-Dec-23 13:49 34.570670 -117.322263 44 29653ft 447kts
01-Dec-23 13:50 34.642659 -117.200389 44 31054ft 444kts
01-Dec-23 13:51 34.714294 -117.078843 45 32273ft 443kts
01-Dec-23 13:52 34.785880 -116.956951 45 33415ft 442kts
01-Dec-23 13:53 34.857287 -116.834941 45 34378ft 443kts
01-Dec-23 13:54 34.929510 -116.713389 40 35033ft 439kts
01-Dec-23 13:55 35.012670 -116.604793 37 35041ft 436kts
01-Dec-23 13:56 35.095273 -116.496686 38 35035ft 435kts
01-Dec-23 13:57 35.177276 -116.388100 38 35041ft 436kts
01-Dec-23 13:58 35.260432 -116.277694 39 35046ft 444kts
01-Dec-23 13:59 35.344215 -116.165956 39 35054ft 447kts
01-Dec-23 14:00 35.428045 -116.053829 39 35049ft 446kts
01-Dec-23 14:01 35.511961 -115.941236 40 35067ft 446kts
01-Dec-23 14:02 35.595570 -115.828663 40 35067ft 447kts
01-Dec-23 14:03 35.679076 -115.715199 41 35072ft 449kts
01-Dec-23 14:04 35.762584 -115.600184 41 35071ft 451kts
01-Dec-23 14:05 35.846287 -115.484675 41 35066ft 455kts
01-Dec-23 14:06 35.930851 -115.367584 42 35049ft 458kts
01-Dec-23 14:07 36.015677 -115.249693 42 35031ft 460kts
01-Dec-23 14:08 36.102306 -115.133857 35 35017ft 455kts
01-Dec-23 14:09 36.198435 -115.032273 34 34959ft 455kts
01-Dec-23 14:10 36.293981 -114.929421 35 34955ft 456kts
01-Dec-23 14:11 36.389538 -114.825780 35 34949ft 457kts
01-Dec-23 14:12 36.485056 -114.721772 35 34961ft 457kts
01-Dec-23 14:13 36.580763 -114.617074 36 34957ft 458kts
01-Dec-23 14:14 36.676302 -114.512205 36 34961ft 459kts
01-Dec-23 14:15 36.778327 -114.419567 26 34956ft 451kts
01-Dec-23 14:16 36.885642 -114.337071 26 34965ft 453kts
01-Dec-23 14:17 36.992219 -114.253296 27 34968ft 454kts
01-Dec-23 14:18 37.099378 -114.168606 27 34962ft 455kts
01-Dec-23 14:19 37.206472 -114.083712 27 34966ft 456kts
01-Dec-23 14:20 37.313795 -113.998349 27 34973ft 456kts
01-Dec-23 14:21 37.421039 -113.912760 27 34985ft 456kts
01-Dec-23 14:22 37.528128 -113.826995 27 34987ft 457kts
01-Dec-23 14:23 37.635190 -113.740955 27 34986ft 457kts
01-Dec-23 14:24 37.742146 -113.654698 27 34972ft 457kts
01-Dec-23 14:25 37.849482 -113.567826 27 34962ft 457kts
01-Dec-23 14:26 37.954857 -113.477662 36 34958ft 462kts
01-Dec-23 14:27 38.050345 -113.367627 38 34949ft 463kts
01-Dec-23 14:28 38.146165 -113.258194 37 34951ft 463kts
01-Dec-23 14:29 38.242267 -113.148590 38 34957ft 464kts
01-Dec-23 14:31 38.338072 -113.038851 38 34958ft 464kts
01-Dec-23 14:32 38.449109 -112.964947 17 34969ft 451kts
01-Dec-23 14:33 38.565759 -112.903863 18 34957ft 452kts
01-Dec-23 14:34 38.678338 -112.843446 17 34969ft 430kts
01-Dec-23 14:35 38.788606 -112.784235 17 33154ft 423kts
01-Dec-23 14:36 38.894363 -112.727171 16 31462ft 400kts
01-Dec-23 14:37 38.994346 -112.673095 16 29657ft 381kts
01-Dec-23 14:38 39.087874 -112.622273 15 27936ft 343kts
01-Dec-23 14:39 39.171462 -112.576852 15 26405ft 317kts
01-Dec-23 14:40 39.254946 -112.531486 15 24878ft 332kts
01-Dec-23 14:41 39.338273 -112.485120 15 23486ft 318kts
01-Dec-23 14:42 39.418921 -112.438781 16 22351ft 322kts
01-Dec-23 14:43 39.499943 -112.392126 16 21266ft 315kts
01-Dec-23 14:44 39.579360 -112.346348 17 20217ft 309kts
01-Dec-23 14:45 39.657867 -112.301014 18 19200ft 309kts
01-Dec-23 14:46 39.736229 -112.255650 18 18139ft 309kts
01-Dec-23 14:47 39.814294 -112.210327 19 17087ft 306kts
01-Dec-23 14:48 39.891908 -112.165147 19 16063ft 306kts
01-Dec-23 14:49 39.969480 -112.119899 19 15013ft 306kts
01-Dec-23 14:50 40.047497 -112.072943 21 13951ft 310kts
01-Dec-23 14:51 40.125312 -112.025801 21 12801ft 304kts
01-Dec-23 14:52 40.200463 -111.980236 21 11767ft 293kts
01-Dec-23 14:53 40.275121 -111.938940 6 11005ft 290kts
01-Dec-23 14:54 40.354887 -111.931753 1 11006ft 287kts
01-Dec-23 14:55 40.432911 -111.933106 351 10973ft 268kts
01-Dec-23 14:56 40.504889 -111.941662 351 9773ft 248kts
01-Dec-23 14:56 40.560049 -111.948095 351 8613ft 231kts
01-Dec-23 14:57 40.618003 -111.954831 351 7453ft 187kts
01-Dec-23 14:59 40.672027 -111.961196 352 6344ft 163kts
01-Dec-23 15:00 40.717110 -111.966503 355 5345ft 163kts
01-Dec-23 15:00 40.754137 -111.970669 352 4692ft 157kts
01-Dec-23 15:01 40.791187 -111.975055 354 4236ft 65kts
01-Dec-23 15:02 40.795517 -111.976837 283 4229ft 0kts
01-Dec-23 15:03 40.794529 -111.977586 180 4231ft 15kts
01-Dec-23 15:05 40.790223 -111.978743 262 4235ft 12kts
01-Dec-23 15:05 40.788413 -111.979944 227 4235ft 4kts
01-Dec-23 15:06 40.788500 -111.980714 282 4233ft 0kts
01-Dec-23 15:07 40.788500 -111.980714 282 4233ft 0kts
01-Dec-23 15:08 40.788500 -111.980714 282 4233ft 0kts
01-Dec-23 15:09 40.788500 -111.980714 282 4233ft 0kts

Navigation Log

Ident Type
Flight plan parsing failed, navigation log unavailable